weather.gov     
National Weather Service

Terminal Aerodrome Forecast
NWS Homepage
This page is being discontinued on March 12, 2014.
The same data is available at this site. Please update your bookmarks.
Thank you, and we apologize for the inconvenience.
Please send an email to SR-SRH.Webmaster@noaa.gov with any concerns.


Current Version
Previous Version:    01  02  03  04  05  06  07  08  09  10  11  12  13  14  15  16  17  18  19  20  21  22  23  24  25  26  27  28  29  30  
   31  32  33  34  35  36  37  38  39  
[Printable]
253
FTUS41 KILN 302300
TAFCVG
TAF
KCVG 302340Z 3100/0106 20006KT 6SM -SHRA BR SCT050 OVC100
     FM310600 18006KT 3SM -SHRA BR OVC040
     FM310900 19006KT 2SM -SHRA BR OVC012
     FM311300 19006KT 5SM BR VCSH OVC007
     FM311700 19008KT P6SM VCTS BKN025CB
     FM312100 21007KT P6SM BKN035
     FM010300 21004KT 5SM BR SCT010=


U.S. Dept. of Commerce
NOAA National Weather Service
1325 East West Highway
Silver Spring, MD 20910
E-mail: w-nws.webmaster@noaa.gov
Page last modified: May 16, 2007
NATIONAL WEATHER SERVICE: for Safety, for Work, for Fun - FOR LIFE